Rio, IL

11:20 PM CDT on April 30, 2017 (GMT -0500)
East Burch St | | Change Station
Active Advisory: Flood Warning

Elev 840 ft 41.03 °N, 90.28 °W | Updated 7 seconds ago

Mostly Cloudy
Mostly Cloudy
51.2 °F
Feels Like 51.2 °F
N
0.0
Wind Variable Wind from NE
Gusts 0.0 mph

Today
High -- | Low -- °F
--% Chance of Precip.
Yesterday
High -- | Low -- °F
Precip. -- in
Pressure 29.47 in
Visibility 4.0 miles
Clouds Scattered Clouds 4800 ft
Mostly Cloudy 5000 ft
Mostly Cloudy 8000 ft
Dew Point 50 °F
Humidity 97%
Rainfall 0.20 in
Snow Depth Not available.
6:00 AM 7:57 PM
Waxing Crescent, 29% visible
METAR KGBG 010415Z AUTO 18004KT 4SM BR SCT048 BKN050 BKN080 11/11 A2947 RMK AO2 T01140114
Pressure 29.47 in
Visibility 4.0 miles
Clouds Scattered Clouds 4800 ft
Mostly Cloudy 5000 ft
Mostly Cloudy 8000 ft
Dew Point 50 °F
Humidity 97%
Rainfall 0.20 in
Snow Depth Not available.
6:00 AM 7:57 PM
Waxing Crescent, 29% visible
METAR KGBG 010415Z AUTO 18004KT 4SM BR SCT048 BKN050 BKN080 11/11 A2947 RMK AO2 T01140114

Get Your Daily Forecast Email!

Thanks for signing up!

Be on the lookout for a verification email in your inbox.

You'll start receiving severe weather alerts in your inbox..

×

10-Day Weather Forecast

Almanac

Astronomy

Apr. 30, 2017 Rise Set
Actual Time
Civil Twilight
Nautical Twilight
Astronomical Twilight
Moon
Length of Visible Light
Length of Day
Tomorrow will be .
, % of the Moon is Illuminated

Today's Extremes

State Highs State Lows

Community

WunderPhotos

WunderBlog® & News

Nearby

Air Quality

  Air Quality AQ Index Pollutant
Not available.

Snow Depth

Station Depth Elevation

Earthquake Activity

City Distance Mag. Time & Date
Minimum magnitude displayed is 2.5.

Coastal Water Temperatures

Place Temperature

Stations

Nearby Weather Stations

Station Location Temp. Windchill Dew Point Humidity Wind Precip. Elev Updated Type
                   

Watches & Warnings

Flood Warning
Issued: 10:15 PM CDT Apr. 30, 2017 – National Weather Service

The Flood Warning continues for
the spoon river at London Mills.
* Until Tuesday evening.
* At 945 PM Sunday the stage was 17.6 feet.
* Flood stage is 15.0 feet.
* Minor flooding is occurring and minor flooding is forecast.
* Forecast... the river will continue rising to near 17.8 feet by
early tomorrow morning. The river will fall below flood stage
Tuesday afternoon.



                  Fld observed forecast 6 am
location stg stg day time Mon Tue Wed

Spoon river
London Mills 15 17.6 sun 10 PM 17.8 16.4 12.3



Lat... Lon 4081 9020 4079 9012 4070 9024 4058 9027
      4059 9036 4071 9032